Time;durP1;ratioP1;P1;durP2;ratioP2;P2;SDS_P1;SDS_P2;PMS_P1;PMS_P2;Temp;Humidity;BMP_temperature;BMP_pressure;BME280_temperature;BME280_humidity;BME280_pressure;Samples;Min_cycle;Max_cycle;Signal;HPM_P1;HPM_P2
2023/10/03 00:00:55;;;;;;;21.13;9.82;;;;;;;15.18;60.63;96186.94;5015066;28;20120;-79
2023/10/03 00:03:21;;;;;;;20.42;9.75;;;;;;;15.27;60.61;96205.88;5011675;28;20129;-79
2023/10/03 00:05:48;;;;;;;19.88;9.38;;;;;;;14.68;60.66;96118.66;4994383;28;20133;-78
2023/10/03 00:08:13;;;;;;;22.40;8.63;;;;;;;14.82;60.06;96197.06;4977319;28;20042;-79
2023/10/03 00:10:40;;;;;;;16.00;7.82;;;;;;;14.68;59.23;96156.03;4978102;28;20049;-78
2023/10/03 00:13:11;;;;;;;14.82;7.43;;;;;;;14.79;59.39;96156.78;4979603;28;20073;-79
2023/10/03 00:15:43;;;;;;;19.48;8.38;;;;;;;15.05;59.33;96208.94;5015198;28;20056;-79
2023/10/03 00:18:09;;;;;;;20.02;8.63;;;;;;;15.02;59.45;96209.53;5015341;28;20038;-79
2023/10/03 00:20:34;;;;;;;15.32;7.82;;;;;;;15.04;59.68;96207.34;5014702;28;20053;-79
2023/10/03 00:23:00;;;;;;;19.25;8.48;;;;;;;14.84;59.54;96168.22;4997390;28;20467;-79
2023/10/03 00:25:26;;;;;;;27.10;9.43;;;;;;;14.62;60.39;96165.13;4996774;28;20052;-79
2023/10/03 00:27:54;;;;;;;21.33;8.93;;;;;;;14.89;59.93;96192.22;4996639;28;20139;-79
2023/10/03 00:30:25;;;;;;;23.05;8.63;;;;;;;14.98;59.89;96211.13;4974045;28;20186;-79
2023/10/03 00:32:51;;;;;;;15.88;8.15;;;;;;;14.95;59.69;96203.69;4974671;28;20034;-79
2023/10/03 00:35:19;;;;;;;19.40;8.07;;;;;;;15.02;59.55;96199.63;4973789;28;20039;-79
2023/10/03 00:37:46;;;;;;;22.42;7.85;;;;;;;14.84;59.79;96192.25;4974537;28;20057;-79
2023/10/03 00:42:52;;;;;;;22.67;8.95;;;;;;;14.81;59.82;96175.97;4976010;28;20055;-78
2023/10/03 00:45:25;;;;;;;17.00;7.50;;;;;;;14.97;60.11;96201.53;4974689;28;20046;-79
2023/10/03 00:48:00;;;;;;;25.15;9.90;;;;;;;14.96;59.47;96202.59;4975845;28;20130;-78
2023/10/03 00:50:28;;;;;;;21.90;8.93;;;;;;;14.62;59.86;96157.94;4975999;28;20046;-78
2023/10/03 00:53:04;;;;;;;22.52;8.57;;;;;;;14.74;59.93;96175.47;4976039;28;20469;-79
2023/10/03 00:55:32;;;;;;;18.33;8.60;;;;;;;14.79;59.91;96186.16;4973842;28;20049;-79
2023/10/03 01:00:40;;;;;;;18.33;8.27;;;;;;;14.60;60.15;96167.28;4975487;28;20146;-79
2023/10/03 01:03:23;;;;;;;21.45;8.52;;;;;;;14.69;59.96;96192.31;4975227;28;20043;-79
2023/10/03 01:05:49;;;;;;;16.08;7.80;;;;;;;14.79;59.97;96196.81;4973737;28;20482;-79
2023/10/03 01:08:15;;;;;;;23.63;8.30;;;;;;;14.83;60.43;96206.69;4975930;28;20518;-79
2023/10/03 01:10:40;;;;;;;19.75;8.07;;;;;;;14.81;60.77;96206.13;4973981;28;20074;-79
2023/10/03 01:13:11;;;;;;;20.63;8.43;;;;;;;14.61;61.25;96190.22;4973209;28;20046;-79
2023/10/03 01:15:36;;;;;;;17.27;8.45;;;;;;;14.73;61.42;96200.56;4973296;28;20038;-79
2023/10/03 01:18:03;;;;;;;22.60;8.93;;;;;;;13.88;61.11;96093.91;4973295;28;20498;-79
2023/10/03 01:20:40;;;;;;;25.33;9.02;;;;;;;14.10;61.58;96149.56;4973172;28;20034;-80
2023/10/03 01:23:07;;;;;;;20.60;7.65;;;;;;;14.35;61.66;96178.81;4975032;28;20038;-79
2023/10/03 01:25:34;;;;;;;21.88;8.77;;;;;;;13.68;61.39;96067.28;4974632;28;20045;-78
2023/10/03 01:28:00;;;;;;;15.68;7.82;;;;;;;14.10;61.55;96129.03;4974663;28;20113;-79
2023/10/03 01:30:26;;;;;;;16.48;8.00;;;;;;;14.34;61.77;96176.44;5012359;28;20038;-78
2023/10/03 01:32:57;;;;;;;16.85;8.15;;;;;;;14.15;61.85;96145.00;4996128;28;20054;-79
2023/10/03 01:35:22;;;;;;;19.60;8.38;;;;;;;14.01;61.90;96120.00;5013433;28;20045;-79
2023/10/03 01:37:51;;;;;;;20.67;8.93;;;;;;;14.33;61.80;96164.97;5013254;28;20046;-78
2023/10/03 01:40:17;;;;;;;19.35;8.48;;;;;;;14.47;61.66;96183.88;4995206;28;20048;-79
2023/10/03 01:42:47;;;;;;;18.15;7.72;;;;;;;14.48;61.39;96186.28;5012858;28;20077;-79
2023/10/03 01:45:19;;;;;;;19.08;7.97;;;;;;;14.45;62.06;96196.69;4995339;28;20039;-79
2023/10/03 01:47:49;;;;;;;16.25;8.02;;;;;;;14.29;61.78;96179.91;4995336;28;20374;-78
2023/10/03 01:50:17;;;;;;;25.35;9.05;;;;;;;14.23;61.98;96175.66;4994802;28;20046;-81
2023/10/03 01:52:43;;;;;;;21.83;8.60;;;;;;;14.32;62.13;96186.59;4994608;28;20129;-81
2023/10/03 01:55:12;;;;;;;17.15;8.02;;;;;;;14.34;62.26;96201.25;5012343;28;20057;-81
2023/10/03 01:57:37;;;;;;;16.85;8.23;;;;;;;14.33;62.58;96205.00;5012608;28;20049;-81
2023/10/03 02:00:18;;;;;;;23.58;8.30;;;;;;;14.23;62.39;96186.34;5012526;28;20034;-81
2023/10/03 02:02:44;;;;;;;19.20;8.77;;;;;;;13.98;62.49;96149.06;4994417;28;20441;-81
2023/10/03 02:05:11;;;;;;;17.67;8.18;;;;;;;14.08;63.24;96189.84;4994596;28;20049;-81
2023/10/03 02:07:37;;;;;;;17.90;7.78;;;;;;;13.88;63.15;96161.34;4994602;28;20046;-81
2023/10/03 02:10:03;;;;;;;20.25;9.40;;;;;;;13.99;63.15;96164.78;5010503;28;20042;-81
2023/10/03 02:12:29;;;;;;;21.85;8.25;;;;;;;13.83;63.01;96147.22;4994002;28;20037;-81
2023/10/03 02:14:55;;;;;;;19.92;7.65;;;;;;;14.12;62.83;96172.22;5012529;28;20045;-81
2023/10/03 02:17:21;;;;;;;22.90;8.13;;;;;;;14.03;62.71;96170.41;5012016;28;20532;-81
2023/10/03 02:19:48;;;;;;;21.83;8.05;;;;;;;14.02;62.91;96160.78;5012753;28;20387;-81
2023/10/03 02:22:13;;;;;;;17.13;7.72;;;;;;;14.05;62.93;96170.91;5012387;28;20037;-81
2023/10/03 02:24:39;;;;;;;22.20;7.88;;;;;;;14.04;63.48;96174.63;4994926;28;20056;-81
2023/10/03 02:27:06;;;;;;;18.40;8.23;;;;;;;13.95;63.70;96173.63;5012241;28;20050;-81
2023/10/03 02:29:31;;;;;;;22.83;9.23;;;;;;;13.69;64.71;96178.97;5012218;28;20046;-81
2023/10/03 02:31:58;;;;;;;24.33;8.07;;;;;;;13.67;64.68;96166.97;5010561;28;20053;-81
2023/10/03 02:34:23;;;;;;;24.33;8.32;;;;;;;13.54;64.73;96163.00;4994313;28;20038;-81
2023/10/03 02:36:50;;;;;;;26.05;8.27;;;;;;;13.24;64.63;96121.19;5012323;28;20056;-81
2023/10/03 02:39:20;;;;;;;23.85;9.43;;;;;;;13.46;64.43;96145.69;5010555;28;20135;-81
2023/10/03 02:41:48;;;;;;;16.40;8.32;;;;;;;13.34;64.21;96102.53;5012142;28;20046;-81
2023/10/03 02:44:15;;;;;;;19.83;8.52;;;;;;;13.49;64.26;96133.72;5010703;28;20042;-81
2023/10/03 02:46:41;;;;;;;19.60;8.43;;;;;;;13.76;63.90;96184.03;5011866;28;20132;-81
2023/10/03 02:49:08;;;;;;;18.73;8.07;;;;;;;13.56;63.86;96134.22;4989361;28;20038;-81
2023/10/03 02:51:34;;;;;;;19.30;7.68;;;;;;;13.37;63.96;96095.88;4967487;28;20042;-80
2023/10/03 02:54:00;;;;;;;19.00;8.43;;;;;;;13.44;63.92;96109.72;4968684;28;20623;-80
2023/10/03 02:56:25;;;;;;;15.95;8.10;;;;;;;13.81;63.58;96170.69;4970656;28;20488;-81
2023/10/03 02:58:51;;;;;;;18.77;8.43;;;;;;;13.84;63.25;96165.63;4991195;28;20077;-78
2023/10/03 03:01:17;;;;;;;23.10;8.38;;;;;;;12.97;63.16;96043.41;4973783;28;20053;-78
2023/10/03 03:03:43;;;;;;;17.00;8.85;;;;;;;13.27;63.45;96110.00;4991084;28;20378;-79
2023/10/03 03:06:14;;;;;;;26.90;8.98;;;;;;;13.72;63.41;96173.13;4991262;28;20040;-78
2023/10/03 03:08:39;;;;;;;25.20;9.48;;;;;;;13.63;63.25;96158.75;4991020;28;20118;-79
2023/10/03 03:11:05;;;;;;;23.13;8.20;;;;;;;13.54;63.09;96141.69;4991033;28;20097;-79
2023/10/03 03:13:35;;;;;;;24.85;10.23;;;;;;;13.59;63.01;96159.53;4991049;28;20030;-79
2023/10/03 03:16:03;;;;;;;24.13;10.77;;;;;;;13.69;62.77;96186.97;4973545;28;20509;-78
2023/10/03 03:18:53;;;;;;;30.52;12.45;;;;;;;13.71;62.39;96178.72;4989406;28;20042;-79
2023/10/03 03:21:20;;;;;;;22.95;11.20;;;;;;;13.52;61.76;96147.28;4973374;28;20416;-78
2023/10/03 03:23:56;;;;;;;23.73;10.15;;;;;;;13.75;61.66;96193.91;4991474;28;20046;-79
2023/10/03 03:26:24;;;;;;;15.80;8.27;;;;;;;13.21;61.11;96118.25;4995530;28;20050;-79
2023/10/03 03:28:50;;;;;;;20.67;8.75;;;;;;;13.61;61.21;96184.84;4977499;28;20117;-78
2023/10/03 03:31:20;;;;;;;22.50;8.68;;;;;;;13.33;61.30;96159.56;4994185;28;20035;-79
2023/10/03 03:33:47;;;;;;;15.13;7.22;;;;;;;13.28;61.84;96183.50;4976803;28;20074;-79
2023/10/03 03:36:17;;;;;;;19.75;7.82;;;;;;;13.02;61.78;96163.22;4977156;28;20524;-79
2023/10/03 03:38:47;;;;;;;19.58;7.75;;;;;;;13.23;61.99;96190.72;4977299;28;20049;-79
2023/10/03 03:41:13;;;;;;;21.00;7.72;;;;;;;13.38;61.43;96196.84;4994806;28;20421;-79
2023/10/03 03:43:39;;;;;;;19.52;7.95;;;;;;;13.33;61.06;96164.88;4994350;28;20045;-79
2023/10/03 03:46:05;;;;;;;16.25;7.30;;;;;;;13.32;60.79;96159.81;4994377;28;20042;-79
2023/10/03 03:48:34;;;;;;;17.10;6.75;;;;;;;13.56;60.88;96200.84;4994629;28;20046;-79
2023/10/03 03:51:06;;;;;;;14.40;6.70;;;;;;;13.57;60.58;96188.34;4994360;28;20042;-79
2023/10/03 03:53:31;;;;;;;20.35;8.52;;;;;;;13.63;60.67;96203.25;4976563;28;20073;-78
2023/10/03 03:55:58;;;;;;;38.22;8.70;;;;;;;13.54;60.27;96179.00;4994680;28;20034;-79
2023/10/03 03:58:24;;;;;;;22.65;7.22;;;;;;;12.97;60.42;96102.75;4976650;28;20042;-79
2023/10/03 04:00:52;;;;;;;22.90;8.77;;;;;;;13.52;60.73;96203.25;4976824;28;20120;-78
2023/10/03 04:03:19;;;;;;;20.45;8.40;;;;;;;13.43;60.76;96190.72;4992765;28;20042;-78
2023/10/03 04:05:46;;;;;;;15.30;7.18;;;;;;;13.43;61.01;96180.06;4992677;28;20062;-79
2023/10/03 04:08:12;;;;;;;20.42;7.60;;;;;;;13.36;60.77;96168.84;4975404;28;20120;-78
2023/10/03 04:10:38;;;;;;;21.60;8.95;;;;;;;13.52;61.00;96197.09;4991223;28;20509;-78
2023/10/03 04:13:07;;;;;;;23.90;8.82;;;;;;;13.51;61.51;96206.97;4992151;28;20034;-79
2023/10/03 04:15:32;;;;;;;19.83;8.95;;;;;;;13.28;61.58;96174.72;4992106;28;21018;-80
2023/10/03 04:17:58;;;;;;;25.42;8.55;;;;;;;13.26;61.87;96188.31;4980566;28;20113;-81
2023/10/03 04:22:50;;;;;;;21.75;7.97;;;;;;;13.36;62.16;96214.97;4998640;28;20050;-80
2023/10/03 04:25:19;;;;;;;20.77;8.27;;;;;;;13.24;62.14;96189.66;4983393;28;20279;-80
2023/10/03 04:27:47;;;;;;;23.23;8.63;;;;;;;12.58;62.38;96107.78;4968908;28;20045;-81
2023/10/03 04:30:14;;;;;;;18.52;8.50;;;;;;;13.28;62.40;96210.16;4960502;28;20054;-80
2023/10/03 04:32:43;;;;;;;26.38;8.63;;;;;;;13.13;62.75;96204.81;4973329;28;20706;-80
2023/10/03 04:35:11;;;;;;;22.50;8.43;;;;;;;13.24;62.60;96202.97;4961973;28;20046;-81
2023/10/03 04:37:39;;;;;;;27.45;7.57;;;;;;;13.09;63.00;96185.88;4959398;28;20505;-80
2023/10/03 04:40:06;;;;;;;17.55;8.02;;;;;;;13.14;62.99;96190.44;4963683;28;20043;-80
2023/10/03 04:42:32;;;;;;;23.77;8.27;;;;;;;12.96;63.27;96165.09;4963780;28;20069;-80
2023/10/03 04:44:58;;;;;;;24.15;8.70;;;;;;;13.07;63.17;96193.31;4950841;28;20156;-80
2023/10/03 04:47:27;;;;;;;25.95;9.60;;;;;;;13.22;63.51;96205.09;4960673;28;20137;-81
2023/10/03 04:49:52;;;;;;;18.70;8.55;;;;;;;13.25;63.22;96205.38;4975466;28;20034;-82
2023/10/03 04:52:17;;;;;;;16.13;8.60;;;;;;;13.03;62.82;96160.31;4975484;28;20104;-82
2023/10/03 04:54:43;;;;;;;24.35;9.25;;;;;;;13.36;62.81;96208.81;4978741;28;20898;-81
2023/10/03 04:57:11;;;;;;;17.25;9.00;;;;;;;13.10;63.13;96162.72;4959666;28;20062;-81
2023/10/03 04:59:39;;;;;;;23.90;8.32;;;;;;;13.36;63.10;96211.50;4977254;28;22008;-81
2023/10/03 05:02:04;;;;;;;17.70;8.02;;;;;;;12.45;63.17;96062.25;4964794;28;20561;-81
2023/10/03 05:04:30;;;;;;;22.42;8.98;;;;;;;13.22;62.99;96175.78;4959589;28;20054;-81
2023/10/03 05:06:55;;;;;;;19.80;8.25;;;;;;;13.14;63.33;96185.09;4963702;28;20377;-81
2023/10/03 05:09:22;;;;;;;23.55;8.60;;;;;;;13.10;63.14;96173.34;4966229;28;20406;-81
2023/10/03 05:11:50;;;;;;;23.67;8.90;;;;;;;13.25;63.63;96200.03;4964418;28;20042;-82
2023/10/03 05:14:17;;;;;;;23.23;10.32;;;;;;;13.19;63.44;96200.31;4961608;28;20519;-80
2023/10/03 05:16:43;;;;;;;25.63;9.05;;;;;;;12.98;63.24;96164.81;4960546;28;20313;-78
2023/10/03 05:19:09;;;;;;;25.67;9.45;;;;;;;13.22;63.40;96202.41;4955997;28;20630;-79
2023/10/03 05:21:37;;;;;;;22.92;8.70;;;;;;;13.20;63.17;96180.59;4952853;28;20200;-81
2023/10/03 05:24:03;;;;;;;22.20;9.15;;;;;;;12.94;62.80;96135.25;4955848;28;20125;-79
2023/10/03 05:26:29;;;;;;;22.40;8.93;;;;;;;13.27;62.95;96192.59;4971299;28;20847;-79
2023/10/03 05:28:55;;;;;;;24.55;9.43;;;;;;;13.52;62.87;96235.22;4976070;28;20514;-80
2023/10/03 05:31:23;;;;;;;21.92;9.02;;;;;;;13.18;62.60;96178.19;4975208;28;20120;-78
2023/10/03 05:33:48;;;;;;;27.90;9.40;;;;;;;13.03;62.63;96143.53;4980649;28;20069;-77
2023/10/03 05:36:16;;;;;;;22.70;8.98;;;;;;;12.98;62.24;96128.34;4993989;28;20033;-78
2023/10/03 05:38:42;;;;;;;24.48;9.55;;;;;;;13.65;62.35;96235.78;4978986;28;20044;-79
2023/10/03 05:41:23;;;;;;;27.85;9.27;;;;;;;13.33;62.20;96180.88;4963910;28;20050;-79
2023/10/03 05:43:52;;;;;;;26.42;9.85;;;;;;;13.68;61.89;96233.34;4974145;28;20052;-80
2023/10/03 05:46:18;;;;;;;26.33;9.73;;;;;;;13.45;61.35;96186.72;4983911;28;20045;-79
2023/10/03 05:48:43;;;;;;;27.63;9.50;;;;;;;13.77;60.97;96234.44;4980002;28;20477;-78
2023/10/03 05:51:09;;;;;;;23.90;9.27;;;;;;;13.74;61.30;96223.47;4969265;28;20049;-79
2023/10/03 05:53:35;;;;;;;24.92;9.93;;;;;;;13.57;61.15;96196.31;4968776;28;20044;-79
2023/10/03 05:56:04;;;;;;;41.85;10.40;;;;;;;13.11;61.20;96125.16;5054609;23;20197;-86
2023/10/03 05:58:30;;;;;;;28.70;10.43;;;;;;;13.01;60.77;96100.38;4982898;28;20500;-84
2023/10/03 06:00:59;;;;;;;23.20;10.10;;;;;;;13.37;60.72;96139.28;4971918;28;20359;-82
2023/10/03 06:03:25;;;;;;;22.85;9.43;;;;;;;13.40;60.82;96151.28;5008384;28;20045;-87
2023/10/03 06:05:51;;;;;;;20.75;10.38;;;;;;;13.04;60.86;96092.69;5020311;28;20029;-89
2023/10/03 06:08:17;;;;;;;22.67;9.88;;;;;;;13.63;60.55;96163.25;5016147;28;20069;-86
2023/10/03 06:10:42;;;;;;;27.80;11.20;;;;;;;13.55;60.93;96166.47;5007980;28;20144;-84
2023/10/03 06:13:11;;;;;;;37.22;11.60;;;;;;;13.76;60.85;96181.38;5011748;28;20083;-85
2023/10/03 06:15:46;;;;;;;27.08;11.40;;;;;;;14.15;60.82;96234.91;5006506;28;20038;-84
2023/10/03 06:18:11;;;;;;;33.03;12.23;;;;;;;14.10;61.10;96233.06;5001745;28;20552;-86
2023/10/03 06:20:37;;;;;;;27.75;11.35;;;;;;;14.09;61.11;96228.78;5005502;28;20443;-85
2023/10/03 06:23:04;;;;;;;26.77;11.77;;;;;;;13.92;61.67;96209.63;5011166;28;20041;-85
2023/10/03 06:25:30;;;;;;;24.33;12.52;;;;;;;14.19;61.46;96239.41;5017221;28;20053;-86
2023/10/03 06:27:56;;;;;;;37.88;13.73;;;;;;;14.12;61.66;96222.91;5024065;28;20045;-84
2023/10/03 06:30:22;;;;;;;27.13;12.20;;;;;;;13.39;61.29;96097.19;4998369;28;20488;-85
2023/10/03 06:32:48;;;;;;;30.67;13.70;;;;;;;14.28;61.46;96242.34;5014931;28;20052;-85
2023/10/03 06:35:14;;;;;;;27.50;12.00;;;;;;;13.70;61.15;96135.25;5012106;28;20056;-85
2023/10/03 06:37:40;;;;;;;39.45;13.52;;;;;;;13.76;60.92;96139.50;5011662;28;20041;-86
2023/10/03 06:40:06;;;;;;;28.63;11.90;;;;;;;13.79;61.07;96170.97;5008295;28;20041;-87
2023/10/03 06:42:34;;;;;;;25.88;13.00;;;;;;;14.21;61.15;96225.81;5025918;28;20036;-86
2023/10/03 06:45:00;;;;;;;29.25;13.55;;;;;;;14.25;61.05;96233.03;5005302;28;20128;-86
2023/10/03 06:47:26;;;;;;;29.25;13.02;;;;;;;14.23;61.33;96231.69;5012765;28;20472;-85
2023/10/03 06:49:51;;;;;;;29.52;13.23;;;;;;;14.11;61.17;96207.97;5013617;28;20052;-84
2023/10/03 06:52:17;;;;;;;28.50;13.43;;;;;;;14.02;61.40;96216.81;5012424;28;20048;-82
2023/10/03 06:54:43;;;;;;;32.03;12.88;;;;;;;13.85;61.05;96177.09;5059305;23;20172;-76
2023/10/03 06:57:10;;;;;;;22.27;12.05;;;;;;;14.08;60.63;96202.38;5003012;28;20128;-77
2023/10/03 06:59:35;;;;;;;27.63;12.93;;;;;;;14.20;60.70;96221.56;4992747;28;20046;-78
2023/10/03 07:02:02;;;;;;;35.42;13.05;;;;;;;14.23;60.54;96229.81;5006391;28;20044;-77
2023/10/03 07:04:28;;;;;;;36.15;12.95;;;;;;;14.29;60.61;96242.09;4984049;28;20045;-78
2023/10/03 07:06:53;;;;;;;32.80;13.82;;;;;;;14.18;60.84;96237.84;4995893;28;20050;-78
2023/10/03 07:09:19;;;;;;;34.30;13.90;;;;;;;14.27;60.56;96243.41;5000178;28;20038;-77
2023/10/03 07:11:47;;;;;;;37.97;12.95;;;;;;;14.08;60.52;96234.38;4966244;28;20046;-81
2023/10/03 07:14:14;;;;;;;36.80;13.38;;;;;;;14.46;60.49;96273.03;4960764;28;20769;-81
2023/10/03 07:16:41;;;;;;;46.63;12.70;;;;;;;14.09;60.64;96242.13;4988187;28;20038;-81
2023/10/03 07:19:09;;;;;;;32.08;12.85;;;;;;;14.33;60.46;96246.88;4971795;28;20046;-81
2023/10/03 07:21:35;;;;;;;41.05;13.15;;;;;;;14.41;60.54;96260.50;4967113;28;20471;-81
2023/10/03 07:24:00;;;;;;;38.30;12.02;;;;;;;14.28;60.36;96274.38;4968931;28;20064;-81
2023/10/03 07:26:27;;;;;;;32.90;12.43;;;;;;;14.35;60.12;96250.06;4968543;28;20081;-81
2023/10/03 07:28:57;;;;;;;27.45;12.00;;;;;;;14.50;59.77;96269.53;4971799;28;20034;-82
2023/10/03 07:31:23;;;;;;;29.38;12.85;;;;;;;14.46;60.24;96270.38;4967942;28;20458;-81
2023/10/03 07:33:48;;;;;;;26.55;11.70;;;;;;;14.48;60.02;96250.34;4967183;28;20112;-81
2023/10/03 07:36:17;;;;;;;26.90;12.73;;;;;;;14.38;60.09;96268.22;4984987;28;20170;-82
2023/10/03 07:38:42;;;;;;;38.50;11.63;;;;;;;14.63;59.86;96284.19;4981343;28;20039;-78
2023/10/03 07:41:13;;;;;;;46.58;12.45;;;;;;;14.45;59.60;96231.41;4965806;28;20623;-81
2023/10/03 07:43:39;;;;;;;35.97;11.73;;;;;;;14.77;59.29;96281.75;4977586;28;20673;-81
2023/10/03 07:46:05;;;;;;;24.48;12.05;;;;;;;14.36;59.66;96215.09;4972043;28;20046;-81
2023/10/03 07:48:30;;;;;;;35.05;11.57;;;;;;;14.83;59.19;96267.28;4979109;28;20522;-81
2023/10/03 07:50:56;;;;;;;31.27;12.75;;;;;;;14.82;59.18;96249.66;4994246;28;20046;-81
2023/10/03 07:53:22;;;;;;;30.20;12.15;;;;;;;14.65;59.70;96256.13;4988428;28;20151;-81
2023/10/03 07:55:47;;;;;;;27.13;11.25;;;;;;;14.52;59.69;96250.59;4970276;28;20066;-81
2023/10/03 07:58:14;;;;;;;39.65;11.48;;;;;;;14.45;59.57;96215.38;4977670;28;20236;-81
2023/10/03 08:00:45;;;;;;;34.40;12.75;;;;;;;14.91;59.05;96259.50;4964960;28;20037;-81
2023/10/03 08:03:13;;;;;;;25.23;11.70;;;;;;;15.11;58.69;96265.81;4960376;28;20046;-81
2023/10/03 08:05:39;;;;;;;32.17;11.57;;;;;;;15.00;58.48;96243.72;4952477;28;20473;-81
2023/10/03 08:08:05;;;;;;;35.00;12.82;;;;;;;15.17;58.39;96238.81;4959008;28;20575;-81
2023/10/03 08:10:32;;;;;;;31.23;11.32;;;;;;;15.26;58.22;96258.53;4973537;28;20034;-81
2023/10/03 08:12:59;;;;;;;33.15;12.65;;;;;;;14.99;58.05;96204.72;4982078;28;20535;-81
2023/10/03 08:15:31;;;;;;;33.63;11.05;;;;;;;15.29;57.72;96228.59;4970814;28;20042;-81
2023/10/03 08:17:57;;;;;;;20.30;10.15;;;;;;;15.55;57.65;96255.97;4990966;28;20038;-81
2023/10/03 08:20:24;;;;;;;23.80;11.43;;;;;;;15.31;57.68;96229.09;4977513;28;20034;-81
2023/10/03 08:22:52;;;;;;;26.17;10.70;;;;;;;15.57;57.48;96232.41;4980282;28;20510;-81
2023/10/03 08:25:19;;;;;;;29.30;11.05;;;;;;;15.61;57.64;96248.72;4983463;28;20041;-80
2023/10/03 08:27:46;;;;;;;25.70;10.15;;;;;;;15.53;57.39;96231.38;4976328;28;20037;-80
2023/10/03 08:30:27;;;;;;;25.40;11.02;;;;;;;15.81;56.93;96253.88;5002442;28;20444;-80
2023/10/03 08:32:58;;;;;;;26.38;9.98;;;;;;;15.93;56.59;96246.31;5006450;28;20880;-79
2023/10/03 08:35:37;;;;;;;26.88;10.73;;;;;;;15.64;56.09;96216.84;5003811;28;20022;-79
2023/10/03 08:38:09;;;;;;;29.92;11.10;;;;;;;16.00;56.22;96246.78;4975369;28;20168;-78
2023/10/03 08:40:42;;;;;;;28.90;11.60;;;;;;;15.87;56.71;96211.88;4986431;28;20296;-78
2023/10/03 08:43:10;;;;;;;30.45;9.88;;;;;;;16.09;56.20;96221.03;4990888;28;20359;-80
2023/10/03 08:45:52;;;;;;;33.47;11.25;;;;;;;16.14;55.95;96210.25;4974062;28;20046;-80
2023/10/03 08:48:24;;;;;;;17.73;8.38;;;;;;;16.28;54.72;96233.66;4980954;28;20117;-80
2023/10/03 08:50:53;;;;;;;24.38;8.20;;;;;;;16.40;54.52;96229.50;4979025;28;20484;-79
2023/10/03 08:53:27;;;;;;;20.75;9.02;;;;;;;16.55;54.34;96229.34;4954723;28;20475;-79
2023/10/03 08:55:59;;;;;;;20.02;8.25;;;;;;;16.51;54.74;96212.25;4958652;28;20088;-79
2023/10/03 08:58:28;;;;;;;26.35;9.13;;;;;;;16.80;54.67;96238.97;4959088;28;20046;-80
2023/10/03 09:00:58;;;;;;;29.00;8.30;;;;;;;16.82;54.09;96218.06;4969420;28;20038;-79
2023/10/03 09:06:20;;;;;;;26.08;8.95;;;;;;;16.64;54.25;96175.97;5006270;28;20045;-79
2023/10/03 09:08:51;;;;;;;26.85;8.75;;;;;;;16.51;54.05;96155.22;5004051;28;20041;-80
2023/10/03 09:11:18;;;;;;;18.45;8.50;;;;;;;16.89;54.17;96220.41;4984617;28;20089;-79
2023/10/03 09:13:48;;;;;;;25.08;8.75;;;;;;;16.93;53.77;96197.31;5006051;28;20033;-78
2023/10/03 09:16:19;;;;;;;29.08;8.85;;;;;;;16.74;53.62;96157.09;5002073;28;20125;-79
2023/10/03 09:18:49;;;;;;;;;;;;;;;17.27;53.24;96216.66;4982760;28;20042;-79
2023/10/03 09:21:23;;;;;;;18.05;8.88;;;;;;;17.12;53.06;96186.59;4976945;28;21212;-80
2023/10/03 09:24:01;;;;;;;23.92;9.77;;;;;;;17.34;52.47;96208.25;4991268;28;20047;-80
2023/10/03 09:27:07;;;;;;;18.15;8.48;;;;;;;17.46;52.63;96207.81;5000999;28;20108;-80
2023/10/03 09:29:33;;;;;;;19.73;8.60;;;;;;;17.50;52.73;96206.94;5007537;28;20113;-80
2023/10/03 09:32:17;;;;;;;23.92;8.98;;;;;;;17.44;52.58;96197.38;4974086;28;20661;-79
2023/10/03 09:34:56;;;;;;;20.00;9.30;;;;;;;17.68;52.88;96210.72;5004709;28;20042;-80
2023/10/03 09:37:29;;;;;;;22.33;9.23;;;;;;;17.47;52.00;96185.28;4994548;28;20125;-80
2023/10/03 09:40:00;;;;;;;22.70;9.35;;;;;;;17.60;52.11;96193.38;4996210;28;20045;-81
2023/10/03 09:42:26;;;;;;;20.95;8.75;;;;;;;17.81;52.21;96201.09;4996355;28;20049;-81
2023/10/03 09:44:57;;;;;;;19.92;9.50;;;;;;;17.88;52.13;96193.47;4995201;28;20041;-81
2023/10/03 09:47:30;;;;;;;28.30;8.57;;;;;;;17.99;52.08;96190.31;4979137;28;20038;-81
2023/10/03 09:50:06;;;;;;;24.02;9.07;;;;;;;18.42;51.18;96168.56;4978503;28;20073;-81
2023/10/03 09:52:33;;;;;;;18.55;7.95;;;;;;;18.94;49.76;96132.28;5000313;28;20041;-81
2023/10/03 09:55:03;;;;;;;26.15;8.75;;;;;;;20.25;47.80;96174.03;4965799;28;20051;-81
2023/10/03 09:57:29;;;;;;;17.00;8.27;;;;;;;21.13;44.42;96163.19;4956284;28;20111;-81
2023/10/03 09:59:58;;;;;;;17.45;8.45;;;;;;;21.82;42.08;96177.44;4967165;28;20077;-82
2023/10/03 10:02:37;;;;;;;16.73;7.97;;;;;;;22.70;40.40;96142.50;4961687;28;20491;-81
2023/10/03 10:05:23;;;;;;;22.23;8.43;;;;;;;23.88;38.27;96153.03;4976090;28;20050;-82
2023/10/03 10:07:58;;;;;;;13.73;7.97;;;;;;;24.73;37.25;96172.16;4965037;28;20030;-82
2023/10/03 10:10:25;;;;;;;14.00;6.80;;;;;;;25.23;35.68;96163.66;4959332;28;20713;-81
2023/10/03 10:13:13;;;;;;;14.70;7.82;;;;;;;25.97;34.38;96170.41;4951886;28;20047;-81
2023/10/03 10:16:01;;;;;;;18.70;7.13;;;;;;;26.67;33.58;96161.69;4957491;28;20430;-81
2023/10/03 10:18:45;;;;;;;22.20;8.50;;;;;;;26.72;33.30;96158.69;4971765;28;20046;-80
2023/10/03 10:21:26;;;;;;;20.25;8.13;;;;;;;26.75;31.75;96155.28;4953012;28;20283;-81
2023/10/03 10:24:25;;;;;;;23.00;7.13;;;;;;;27.23;31.32;96151.34;4943707;28;20034;-81
2023/10/03 10:26:52;;;;;;;17.42;7.30;;;;;;;27.15;30.63;96085.03;4938717;28;20051;-81
2023/10/03 10:29:25;;;;;;;19.15;8.00;;;;;;;27.78;30.62;96133.00;4940282;28;20118;-80
2023/10/03 10:31:59;;;;;;;16.98;7.10;;;;;;;27.49;30.29;96071.69;4904923;28;20062;-81
2023/10/03 10:34:29;;;;;;;22.77;8.20;;;;;;;27.91;29.21;96131.69;4929651;28;20367;-82
2023/10/03 10:37:02;;;;;;;19.98;7.28;;;;;;;28.00;29.09;96111.22;4959099;28;20510;-82
2023/10/03 10:39:56;;;;;;;20.33;7.55;;;;;;;27.92;29.89;96117.69;4952769;28;20117;-80
2023/10/03 10:42:25;;;;;;;20.20;8.10;;;;;;;27.81;29.56;96124.09;4943959;28;20042;-80
2023/10/03 10:45:17;;;;;;;15.02;7.68;;;;;;;27.83;28.86;96119.09;4951454;28;20069;-80
2023/10/03 10:47:45;;;;;;;12.23;6.60;;;;;;;27.62;28.94;96090.25;4947374;28;20054;-80
2023/10/03 10:50:11;;;;;;;20.23;7.88;;;;;;;27.73;29.26;96116.94;4959567;28;20500;-80
2023/10/03 10:53:05;;;;;;;17.88;8.00;;;;;;;28.07;29.27;96107.84;4958834;28;20498;-79
2023/10/03 10:55:33;;;;;;;14.02;7.65;;;;;;;28.14;29.29;96116.16;4957997;28;20129;-79
2023/10/03 10:58:09;;;;;;;15.15;7.28;;;;;;;28.37;29.19;96097.84;4960636;28;20247;-80
2023/10/03 11:00:36;;;;;;;20.85;7.53;;;;;;;28.51;29.01;96085.59;4978111;28;20070;-78
2023/10/03 11:03:03;;;;;;;16.08;7.97;;;;;;;28.82;28.59;96088.03;4977338;28;20062;-78
2023/10/03 11:05:44;;;;;;;25.58;7.47;;;;;;;28.97;28.51;96102.66;4965981;28;20043;-78
2023/10/03 11:08:10;;;;;;;17.73;6.80;;;;;;;28.72;27.59;96092.16;4962855;28;20051;-80
2023/10/03 11:10:48;;;;;;;18.40;7.15;;;;;;;28.79;27.71;96088.75;4960456;28;20054;-80
2023/10/03 11:13:14;;;;;;;18.40;6.72;;;;;;;28.34;29.10;96054.94;4956037;28;20158;-81
2023/10/03 11:15:46;;;;;;;16.77;7.72;;;;;;;28.54;27.75;96041.19;4972377;28;20584;-80
2023/10/03 11:18:12;;;;;;;18.13;7.82;;;;;;;28.66;27.85;96066.31;4973149;28;20520;-80
2023/10/03 11:20:38;;;;;;;22.05;7.78;;;;;;;28.64;27.67;96062.38;4956660;28;20125;-79
2023/10/03 11:23:04;;;;;;;15.70;7.28;;;;;;;29.07;27.47;96082.88;4963421;28;20050;-79
2023/10/03 11:25:29;;;;;;;19.83;8.18;;;;;;;28.80;27.76;96033.00;4966908;28;20105;-80
2023/10/03 11:28:05;;;;;;;19.38;7.00;;;;;;;29.16;27.21;96067.81;4957702;28;20246;-81
2023/10/03 11:30:31;;;;;;;21.77;8.02;;;;;;;29.03;26.98;96049.28;4958910;28;20047;-80
2023/10/03 11:33:01;;;;;;;19.77;7.38;;;;;;;28.27;28.26;96041.19;4960960;28;20138;-81
2023/10/03 11:35:26;;;;;;;22.67;8.25;;;;;;;28.12;28.08;96024.94;4957974;28;20039;-80
2023/10/03 11:37:53;;;;;;;16.15;7.65;;;;;;;28.14;28.81;96045.25;4953993;28;20065;-81
2023/10/03 11:40:26;;;;;;;18.90;8.27;;;;;;;27.93;28.29;96009.44;4961870;28;20058;-80
2023/10/03 11:42:58;;;;;;;22.15;7.80;;;;;;;28.15;28.35;96043.31;4964151;28;20121;-81